Terminal Aerodrome Forecast
Issued by NWS St Louis, MO

Home | Current Version | Previous Version | Text Only | Print | Product List | Glossary On
Versions: 1 2 3 4 5 6 7 8 9 10 11 12 13 14 15 16 17 18 19 20 21 22 23 24 25 26 27 28
000
FTUS43 KLSX 220858 AAC
TAFSTL
TAF AMD
KSTL 220858Z 2209/2312 VRB03KT 5SM BR SCT004 BKN250
      TEMPO 2209/2210 3SM BR BKN003
     FM221100 VRB04KT 1/4SM FG VV002
     FM221500 20006KT 4SM BR SCT010
     FM221800 20010KT P6SM SCT030
     FM230100 19007KT P6SM SCT250=

USA.gov is the U.S. government's official web portal to all federal, state and local government web resources and services.